Time;durP1;ratioP1;P1;durP2;ratioP2;P2;SDS_P1;SDS_P2;PMS_P1;PMS_P2;Temp;Humidity;BMP_temperature;BMP_pressure;BME280_temperature;BME280_humidity;BME280_pressure;Samples;Min_cycle;Max_cycle;Signal;HPM_P1;HPM_P2
2023/10/24 00:07:13;;;;;;;11.23;3.65;;;;;;;18.75;100.00;101226.53;20982747;28;20409;-78
2023/10/24 00:17:36;;;;;;;10.98;4.03;;;;;;;18.69;100.00;101237.31;20937526;28;20099;-78
2023/10/24 00:28:00;;;;;;;9.27;4.10;;;;;;;18.67;100.00;101226.63;21013618;28;20056;-78
2023/10/24 00:38:22;;;;;;;10.63;3.88;;;;;;;18.57;100.00;101226.75;21021025;28;20148;-78
2023/10/24 00:48:46;;;;;;;8.60;4.10;;;;;;;18.54;100.00;101226.72;21021391;28;20052;-78
2023/10/24 00:59:09;;;;;;;11.55;4.10;;;;;;;18.47;100.00;101216.97;21017401;28;20053;-78
2023/10/24 01:09:33;;;;;;;10.98;4.50;;;;;;;18.44;100.00;101215.25;21000913;28;20519;-78
2023/10/24 01:19:55;;;;;;;8.05;4.32;;;;;;;18.38;100.00;101217.09;21001168;28;20094;-77
2023/10/24 01:30:19;;;;;;;11.98;4.15;;;;;;;18.33;100.00;101218.00;20964664;28;20048;-78
2023/10/24 01:40:42;;;;;;;12.20;4.20;;;;;;;18.31;100.00;101209.09;20958333;28;20047;-78
2023/10/24 01:51:07;;;;;;;10.20;4.40;;;;;;;18.30;100.00;101215.34;21001443;28;20068;-77
2023/10/24 02:01:30;;;;;;;10.10;5.07;;;;;;;18.27;100.00;101220.72;20962013;28;20052;-78
2023/10/24 02:11:54;;;;;;;10.70;5.57;;;;;;;18.24;100.00;101225.22;21003437;28;20044;-78
2023/10/24 02:22:17;;;;;;;10.77;4.80;;;;;;;18.15;100.00;101225.28;20955737;28;20053;-78
2023/10/24 02:32:41;;;;;;;14.55;6.05;;;;;;;18.15;100.00;101230.63;20962318;28;20049;-78
2023/10/24 02:43:03;;;;;;;11.57;5.68;;;;;;;18.10;100.00;101241.38;20982523;28;20055;-78
2023/10/24 02:53:27;;;;;;;11.13;5.15;;;;;;;18.05;100.00;101243.16;20993658;28;20055;-77
2023/10/24 03:03:50;;;;;;;9.77;5.13;;;;;;;17.96;100.00;101247.69;21003261;28;20500;-78
2023/10/24 03:14:14;;;;;;;14.82;6.38;;;;;;;17.99;100.00;101253.00;21005495;28;20151;-77
2023/10/24 03:24:37;;;;;;;12.23;5.50;;;;;;;17.96;100.00;101253.03;20993580;28;20101;-78
2023/10/24 03:35:02;;;;;;;12.93;6.30;;;;;;;18.01;100.00;101261.91;20976578;28;20092;-78
2023/10/24 03:45:25;;;;;;;13.20;6.35;;;;;;;17.91;100.00;101267.31;20914841;28;20057;-78
2023/10/24 03:55:58;;;;;;;10.65;5.40;;;;;;;17.89;100.00;101274.44;20998937;28;20052;-78
2023/10/24 04:06:20;;;;;;;10.77;6.43;;;;;;;17.95;100.00;101280.66;20969940;28;20068;-78
2023/10/24 04:16:44;;;;;;;14.27;6.15;;;;;;;17.89;100.00;101286.91;20995805;28;20048;-78
2023/10/24 04:27:08;;;;;;;11.98;6.55;;;;;;;17.86;100.00;101281.56;20989560;28;20052;-78
2023/10/24 04:37:32;;;;;;;14.27;6.60;;;;;;;17.81;100.00;101281.63;21016766;28;20619;-78
2023/10/24 04:47:55;;;;;;;16.92;8.32;;;;;;;17.85;100.00;101280.69;21004448;28;20052;-78
2023/10/24 04:58:19;;;;;;;12.13;6.47;;;;;;;17.89;100.00;101300.28;20967366;28;20048;-78
2023/10/24 05:08:42;;;;;;;12.13;5.97;;;;;;;18.00;100.00;101306.44;20946079;28;20041;-78
2023/10/24 05:19:06;;;;;;;11.38;4.90;;;;;;;18.52;100.00;101327.44;20964540;28;20045;-78
2023/10/24 05:29:28;;;;;;;10.05;4.50;;;;;;;19.21;100.00;101335.78;20912217;28;20159;-78
2023/10/24 05:39:52;;;;;;;10.85;4.32;;;;;;;19.84;100.00;101353.78;20975624;28;20085;-79
2023/10/24 05:50:17;;;;;;;10.20;3.90;;;;;;;20.44;100.00;101366.38;20945425;28;20049;-79
2023/10/24 06:00:41;;;;;;;12.45;3.25;;;;;;;21.09;100.00;101368.88;20983121;28;20076;-79
2023/10/24 06:11:05;;;;;;;8.75;3.00;;;;;;;21.71;100.00;101363.25;21001910;28;20056;-80
2023/10/24 06:21:30;;;;;;;9.27;3.20;;;;;;;22.51;100.00;101353.38;21014055;28;20097;-81
2023/10/24 06:31:52;;;;;;;7.18;3.00;;;;;;;23.27;100.00;101364.91;21014501;28;20094;-80
2023/10/24 06:42:16;;;;;;;9.75;2.70;;;;;;;24.07;100.00;101361.75;20959673;28;20075;-80
2023/10/24 06:52:41;;;;;;;9.38;2.90;;;;;;;24.61;100.00;101359.13;20997691;28;20106;-81
2023/10/24 07:03:05;;;;;;;7.70;2.33;;;;;;;25.20;100.00;101358.06;20988844;28;20132;-80
2023/10/24 07:13:29;;;;;;;8.75;2.63;;;;;;;25.71;100.00;101347.22;20939893;28;20173;-77
2023/10/24 07:23:54;;;;;;;9.05;2.92;;;;;;;26.12;100.00;101340.22;21008524;28;20052;-80
2023/10/24 07:34:17;;;;;;;6.43;2.58;;;;;;;26.33;100.00;101341.19;21008640;28;20078;-80
2023/10/24 07:44:41;;;;;;;5.70;2.15;;;;;;;26.87;100.00;101333.47;20938946;28;20051;-81
2023/10/24 07:55:04;;;;;;;6.93;2.50;;;;;;;27.11;100.00;101333.41;21001282;28;20098;-78
2023/10/24 08:05:28;;;;;;;5.68;1.92;;;;;;;27.35;100.00;101329.59;20922031;28;20095;-77
2023/10/24 08:15:51;;;;;;;6.93;2.17;;;;;;;27.65;100.00;101328.22;20973465;28;20056;-79
2023/10/24 08:26:16;;;;;;;8.93;1.90;;;;;;;27.81;100.00;101322.09;20997941;28;20095;-78
2023/10/24 08:36:38;;;;;;;6.88;2.03;;;;;;;27.92;100.00;101317.03;20936051;28;20045;-79
2023/10/24 08:47:04;;;;;;;7.18;1.90;;;;;;;28.34;97.57;101309.56;21009567;28;20058;-79
2023/10/24 08:57:30;;;;;;;;;;;;;;;28.56;93.53;101306.66;20960089;28;20055;-78
2023/10/24 09:07:57;;;;;;;8.55;2.10;;;;;;;29.01;85.03;101298.03;20988867;28;20021;-78
2023/10/24 09:18:19;;;;;;;7.07;1.92;;;;;;;29.35;79.50;101277.19;20935337;28;20664;-79
2023/10/24 09:28:43;;;;;;;4.50;1.90;;;;;;;29.38;67.74;101277.91;20959522;28;20052;-79
2023/10/24 09:39:06;;;;;;;7.57;2.17;;;;;;;29.47;63.61;101260.22;20941616;28;20041;-79
2023/10/24 09:49:30;;;;;;;8.65;2.17;;;;;;;29.75;62.83;101252.25;21003953;28;20056;-78
2023/10/24 09:59:54;;;;;;;8.07;1.80;;;;;;;29.69;60.57;101247.16;20943521;28;20056;-78
2023/10/24 10:10:22;;;;;;;9.25;2.03;;;;;;;29.84;61.59;101237.25;20905038;28;20052;-81
2023/10/24 10:20:54;;;;;;;10.32;2.72;;;;;;;29.68;61.76;101227.22;20926566;28;20059;-80
2023/10/24 10:31:44;;;;;;;5.85;1.70;;;;;;;29.76;62.33;101210.44;20999294;28;20044;-79
2023/10/24 10:42:07;;;;;;;6.25;1.95;;;;;;;29.50;60.75;101214.66;20935551;28;20049;-78
2023/10/24 10:52:43;;;;;;;6.93;2.15;;;;;;;29.12;63.50;101203.13;20892079;28;20041;-79
2023/10/24 11:03:26;;;;;;;8.67;2.17;;;;;;;28.89;67.15;101187.16;20875966;28;20094;-81
2023/10/24 11:13:53;;;;;;;8.70;2.13;;;;;;;28.87;68.82;101187.28;20915109;28;20325;-79
2023/10/24 11:24:20;;;;;;;;;;;;;;;28.54;70.88;101180.88;20888676;28;20450;-79
2023/10/24 11:34:44;;;;;;;7.38;2.70;;;;;;;28.17;77.11;101192.72;20904003;28;19927;-79
2023/10/24 11:45:07;;;;;;;7.20;2.92;;;;;;;27.95;78.92;101192.03;20887773;28;20053;-79
2023/10/24 11:55:33;;;;;;;8.38;3.00;;;;;;;27.58;95.46;101201.94;20887052;28;20056;-79
2023/10/24 12:05:56;;;;;;;12.18;3.90;;;;;;;27.32;100.00;101211.28;20888210;28;20052;-80
2023/10/24 12:16:20;;;;;;;7.80;3.92;;;;;;;27.11;100.00;101209.56;20885769;28;20052;-79
2023/10/24 12:26:43;;;;;;;10.52;4.30;;;;;;;27.03;100.00;101210.88;20881355;28;20617;-79
2023/10/24 12:37:07;;;;;;;11.20;4.72;;;;;;;27.09;100.00;101202.47;20898195;28;20550;-80
2023/10/24 12:47:30;;;;;;;8.90;4.05;;;;;;;26.79;100.00;101181.16;20887898;28;20045;-78
2023/10/24 12:57:54;;;;;;;11.65;4.43;;;;;;;26.67;100.00;101184.44;20887768;28;20098;-79
2023/10/24 13:08:17;;;;;;;9.00;4.07;;;;;;;26.58;100.00;101180.28;20896752;28;20122;-80
2023/10/24 13:18:42;;;;;;;13.82;5.32;;;;;;;26.52;100.00;101179.69;20901193;28;20049;-80
2023/10/24 13:29:04;;;;;;;13.25;4.82;;;;;;;26.27;100.00;101171.75;20955163;28;20074;-81
2023/10/24 13:39:28;;;;;;;8.35;4.30;;;;;;;26.10;100.00;101164.31;20992233;28;20045;-80
2023/10/24 13:49:52;;;;;;;12.30;6.57;;;;;;;25.90;100.00;101166.09;20962306;28;20052;-80
2023/10/24 14:00:18;;;;;;;8.93;5.22;;;;;;;25.67;100.00;101157.06;20989136;28;20052;-79
2023/10/24 14:10:40;;;;;;;12.23;4.90;;;;;;;25.49;100.00;101156.91;21015719;28;20063;-79
2023/10/24 14:21:05;;;;;;;9.40;5.38;;;;;;;25.32;100.00;101153.06;21014536;28;20067;-78
2023/10/24 14:31:27;;;;;;;10.60;5.93;;;;;;;25.07;100.00;101148.66;20990180;28;20055;-79
2023/10/24 14:41:54;;;;;;;12.60;5.82;;;;;;;24.84;100.00;101144.97;21011603;28;20052;-80
2023/10/24 14:52:17;;;;;;;13.85;6.60;;;;;;;24.66;100.00;101132.16;20946466;28;20045;-78
2023/10/24 15:02:41;;;;;;;15.82;6.80;;;;;;;24.51;100.00;101133.56;20995062;28;20163;-79
2023/10/24 15:13:03;;;;;;;13.80;6.75;;;;;;;24.41;100.00;101123.19;20992448;28;20060;-80
2023/10/24 15:23:27;;;;;;;13.55;6.93;;;;;;;24.29;100.00;101126.28;20947975;28;20496;-79
2023/10/24 15:33:49;;;;;;;14.13;7.88;;;;;;;24.07;100.00;101137.81;20997742;28;20049;-80
2023/10/24 15:44:13;;;;;;;17.80;7.38;;;;;;;23.90;100.00;101147.38;21010361;28;20098;-79
2023/10/24 15:54:37;;;;;;;16.17;7.93;;;;;;;23.68;100.00;101160.69;20921448;28;20045;-80
2023/10/24 16:05:01;;;;;;;14.43;8.77;;;;;;;23.67;100.00;101184.09;20894975;28;20709;-79
2023/10/24 16:15:24;;;;;;;17.83;6.90;;;;;;;23.69;100.00;101194.81;20970502;28;20059;-79
2023/10/24 16:25:48;;;;;;;15.32;7.70;;;;;;;23.70;100.00;101205.53;21007496;28;20112;-81
2023/10/24 16:36:10;;;;;;;16.52;7.32;;;;;;;23.79;100.00;101215.16;20974150;28;20044;-80
2023/10/24 16:46:35;;;;;;;10.43;6.75;;;;;;;23.86;100.00;101221.25;20974881;28;20057;-82
2023/10/24 16:56:58;;;;;;;14.15;7.07;;;;;;;23.84;100.00;101222.16;20892214;28;20049;-81
2023/10/24 17:07:22;;;;;;;15.30;7.57;;;;;;;23.74;100.00;101231.50;20933638;28;20123;-81
2023/10/24 17:17:44;;;;;;;14.73;6.80;;;;;;;23.51;100.00;101231.28;20892920;28;20060;-81
2023/10/24 17:28:09;;;;;;;12.27;6.57;;;;;;;23.56;100.00;101223.09;20895714;28;20115;-81
2023/10/24 17:38:31;;;;;;;14.80;6.95;;;;;;;23.47;100.00;101221.56;20882373;28;21624;-82
2023/10/24 17:48:56;;;;;;;9.60;6.55;;;;;;;23.47;100.00;101216.16;20882963;28;20037;-82
2023/10/24 17:59:18;;;;;;;15.55;7.15;;;;;;;23.45;100.00;101207.19;20895070;28;20099;-82
2023/10/24 18:09:42;;;;;;;14.95;7.75;;;;;;;23.32;100.00;101206.69;20889748;28;20057;-84
2023/10/24 18:20:06;;;;;;;13.07;8.15;;;;;;;23.00;100.00;101195.97;20892637;28;20432;-83
2023/10/24 18:30:31;;;;;;;14.45;8.90;;;;;;;22.46;100.00;101182.19;20875884;28;20199;-80
2023/10/24 18:40:53;;;;;;;16.63;9.40;;;;;;;22.03;100.00;101191.38;20889612;28;20052;-78
2023/10/24 18:51:18;;;;;;;14.90;9.30;;;;;;;21.87;100.00;101188.13;20875494;28;20049;-81
2023/10/24 19:01:40;;;;;;;13.73;8.23;;;;;;;21.98;100.00;101203.16;20883296;28;20060;-81
2023/10/24 19:12:05;;;;;;;11.95;7.75;;;;;;;21.84;100.00;101203.47;20888389;28;20052;-83
2023/10/24 19:22:33;;;;;;;15.93;8.48;;;;;;;21.72;100.00;101204.63;20886658;28;20052;-80
2023/10/24 19:32:59;;;;;;;15.63;8.83;;;;;;;21.64;100.00;101220.03;20869848;28;20055;-78
2023/10/24 19:43:24;;;;;;;16.20;8.13;;;;;;;21.47;100.00;101216.81;20872252;28;20049;-81
2023/10/24 19:53:49;;;;;;;14.82;7.80;;;;;;;21.29;100.00;101223.50;20934346;28;20106;-81
2023/10/24 20:04:13;;;;;;;13.30;8.35;;;;;;;21.17;100.00;101218.38;20984653;28;20106;-84
2023/10/24 20:14:38;;;;;;;14.35;8.60;;;;;;;20.98;100.00;101209.78;20906649;28;20052;-79
2023/10/24 20:25:02;;;;;;;12.75;8.75;;;;;;;20.83;100.00;101204.72;20882694;28;20416;-80
2023/10/24 20:35:29;;;;;;;15.75;9.00;;;;;;;20.64;100.00;101203.28;20894082;28;20056;-80
2023/10/24 20:45:52;;;;;;;20.00;8.10;;;;;;;20.56;100.00;101205.22;20986510;28;20664;-81
2023/10/24 20:56:16;;;;;;;16.08;8.43;;;;;;;20.52;100.00;101211.56;20959959;28;20064;-80
2023/10/24 21:06:38;;;;;;;17.48;7.80;;;;;;;20.32;100.00;101203.84;20979188;28;20778;-80
2023/10/24 21:17:03;;;;;;;16.38;7.57;;;;;;;20.06;100.00;101206.97;21022120;28;20048;-80
2023/10/24 21:27:25;;;;;;;16.15;8.05;;;;;;;20.04;100.00;101197.16;20973586;28;20099;-80
2023/10/24 21:37:50;;;;;;;13.55;7.50;;;;;;;19.79;100.00;101208.28;20969276;28;20043;-80
2023/10/24 21:48:12;;;;;;;15.00;7.75;;;;;;;19.66;100.00;101206.69;21006282;28;20052;-80
2023/10/24 21:58:38;;;;;;;12.23;7.80;;;;;;;19.57;100.00;101192.53;21000562;28;20098;-80
2023/10/24 22:09:02;;;;;;;16.02;7.75;;;;;;;19.40;100.00;101190.94;21018766;28;20467;-80
2023/10/24 22:19:27;;;;;;;16.73;7.35;;;;;;;19.39;100.00;101180.25;21014080;28;20056;-79
2023/10/24 22:29:49;;;;;;;13.90;6.20;;;;;;;19.29;100.00;101171.47;20980863;28;20047;-81
2023/10/24 22:40:15;;;;;;;12.13;7.03;;;;;;;19.23;100.00;101166.19;20959958;28;20048;-80
2023/10/24 22:50:37;;;;;;;14.60;7.93;;;;;;;19.02;100.00;101159.34;20996725;28;20524;-81
2023/10/24 23:01:10;;;;;;;12.32;7.35;;;;;;;18.99;100.00;101156.69;21007290;28;20056;-80
2023/10/24 23:11:33;;;;;;;10.43;7.28;;;;;;;18.87;100.00;101148.81;20958730;28;20573;-82
2023/10/24 23:21:56;;;;;;;12.95;7.03;;;;;;;18.79;100.00;101141.78;20960745;28;20047;-81
2023/10/24 23:32:19;;;;;;;14.95;7.15;;;;;;;18.62;100.00;101148.22;20992391;28;20098;-80
2023/10/24 23:42:43;;;;;;;13.18;6.55;;;;;;;18.56;100.00;101150.97;21006986;28;20057;-80
2023/10/24 23:53:06;;;;;;;14.88;6.90;;;;;;;18.49;100.00;101151.00;20970024;28;20558;-80
